createdAt,value
2023-03-29T00:04:16.935Z,1.7
2023-03-29T00:10:00.949Z,1.9
2023-03-29T00:15:45.243Z,1.7
2023-03-29T00:21:29.205Z,1.7
2023-03-29T00:27:13.269Z,1.6
2023-03-29T00:32:57.392Z,1.8
2023-03-29T00:38:42.250Z,1.8
2023-03-29T00:44:37.753Z,1.6
2023-03-29T00:50:22.792Z,1.9
2023-03-29T00:56:09.447Z,1.6
2023-03-29T01:01:56.411Z,1.5
2023-03-29T01:07:45.160Z,1.6
2023-03-29T01:13:34.482Z,1.7
2023-03-29T01:19:21.206Z,1.5
2023-03-29T01:25:12.650Z,1.6
2023-03-29T01:30:59.431Z,1.5
2023-03-29T01:36:46.980Z,1.4
2023-03-29T01:42:43.199Z,1.4
2023-03-29T01:48:30.884Z,1.6
2023-03-29T01:54:17.490Z,1.6
2023-03-29T02:00:02.773Z,1.6
2023-03-29T02:05:47.351Z,1.4
2023-03-29T02:11:31.656Z,1.6
2023-03-29T02:17:25.680Z,1.6
2023-03-29T02:23:13.097Z,1.8
2023-03-29T02:28:57.318Z,1.4
2023-03-29T02:34:45.321Z,1.5
2023-03-29T02:40:29.458Z,1.8
2023-03-29T02:46:14.749Z,1.6
2023-03-29T02:52:00.050Z,1.6
2023-03-29T02:57:44.193Z,1.6
2023-03-29T03:03:28.723Z,1.5
2023-03-29T03:09:12.991Z,1.4
2023-03-29T03:14:57.121Z,1.5
2023-03-29T03:20:42.041Z,1.8
2023-03-29T03:26:26.223Z,1.4
2023-03-29T03:32:10.507Z,1.5
2023-03-29T03:37:54.528Z,1.6
2023-03-29T03:43:38.698Z,1.6
2023-03-29T03:49:22.663Z,1.4
2023-03-29T03:55:07.091Z,1.6
2023-03-29T04:00:51.512Z,1.7
2023-03-29T04:06:35.569Z,1.6
2023-03-29T04:12:19.530Z,1.3
2023-03-29T04:18:04.090Z,1.6
2023-03-29T04:23:48.837Z,1.4
2023-03-29T04:29:33.056Z,1.4
2023-03-29T04:35:17.314Z,1.6
2023-03-29T04:41:05.632Z,1.6
2023-03-29T04:46:49.879Z,1.6
2023-03-29T04:52:34.028Z,1.6
2023-03-29T04:58:20.079Z,1.5
2023-03-29T05:04:12.136Z,1.7
2023-03-29T05:09:56.973Z,1.6
2023-03-29T05:15:43.378Z,1.7
2023-03-29T05:21:27.659Z,1.7
2023-03-29T05:27:11.603Z,1.6
2023-03-29T05:32:55.779Z,1.9
2023-03-29T05:38:39.828Z,1.7
2023-03-29T05:44:23.943Z,1.6
2023-03-29T05:50:08.678Z,1.5
2023-03-29T05:55:52.915Z,1.6
2023-03-29T06:01:36.976Z,1.7
2023-03-29T06:07:20.992Z,1.5
2023-03-29T06:13:05.898Z,1.7
2023-03-29T06:18:49.969Z,1.6
2023-03-29T06:24:34.105Z,1.6
2023-03-29T06:30:18.834Z,1.6
2023-03-29T06:36:02.964Z,1.5
2023-03-29T06:41:47.952Z,1.7
2023-03-29T06:47:31.782Z,1.7
2023-03-29T06:53:16.106Z,2.4
2023-03-29T06:59:00.231Z,2
2023-03-29T07:04:44.508Z,1.9
2023-03-29T07:10:29.410Z,2
2023-03-29T07:16:14.403Z,1.7
2023-03-29T07:21:58.481Z,2
2023-03-29T07:27:43.206Z,1.8
2023-03-29T07:33:27.576Z,1.9
2023-03-29T07:39:11.836Z,2
2023-03-29T07:44:56.110Z,2
2023-03-29T07:50:40.155Z,1.8
2023-03-29T07:56:24.824Z,2
2023-03-29T08:02:08.830Z,2.1
2023-03-29T08:07:52.932Z,2
2023-03-29T08:13:36.982Z,2.1
2023-03-29T08:19:21.046Z,2
2023-03-29T08:25:05.537Z,1.8
2023-03-29T08:30:49.578Z,1.9
2023-03-29T08:36:33.900Z,1.9
2023-03-29T08:42:26.930Z,2
2023-03-29T08:48:16.740Z,2
2023-03-29T08:54:03.161Z,1.8
2023-03-29T08:59:47.899Z,2.1
2023-03-29T09:05:35.171Z,2.1
2023-03-29T09:11:31.974Z,2.2
2023-03-29T09:17:19.427Z,2
2023-03-29T09:23:13.568Z,1.8
2023-03-29T09:29:00.638Z,1.8
2023-03-29T09:34:46.112Z,1.7
2023-03-29T09:40:33.283Z,1.8
2023-03-29T09:46:22.105Z,2
2023-03-29T09:52:09.125Z,1.9
2023-03-29T09:57:53.596Z,1.6
2023-03-29T10:03:38.382Z,1.5
2023-03-29T10:09:23.563Z,1.6
2023-03-29T10:15:23.200Z,1.7
2023-03-29T10:21:08.964Z,1.6
2023-03-29T10:26:53.859Z,1.9
2023-03-29T10:32:38.548Z,1.5
2023-03-29T10:38:25.131Z,1.7
2023-03-29T10:44:16.772Z,1.5
2023-03-29T10:50:00.659Z,1.5
2023-03-29T10:55:48.672Z,1.5
2023-03-29T11:01:37.078Z,1.6
2023-03-29T11:07:32.675Z,1.6
2023-03-29T11:13:21.790Z,1.5
2023-03-29T11:19:18.153Z,1.4
2023-03-29T11:25:06.880Z,1.3
2023-03-29T11:30:53.469Z,1.4
2023-03-29T11:36:40.496Z,1.4
2023-03-29T11:42:26.295Z,1.6
2023-03-29T11:48:16.110Z,2.7
2023-03-29T11:54:03.903Z,2.7
2023-03-29T11:59:52.874Z,2.3
2023-03-29T12:05:38.951Z,2.1
2023-03-29T12:11:28.078Z,2.1
2023-03-29T12:17:14.723Z,2.1
2023-03-29T12:22:59.179Z,2.1
2023-03-29T12:28:55.086Z,1.8
2023-03-29T12:34:46.864Z,1.9
2023-03-29T12:40:35.966Z,1.9
2023-03-29T12:46:21.551Z,1.9
2023-03-29T12:52:08.324Z,1.8
2023-03-29T12:58:03.528Z,1.8
2023-03-29T13:03:49.176Z,1.7
2023-03-29T13:09:34.047Z,1.6
2023-03-29T13:15:29.498Z,1.5
2023-03-29T13:21:20.038Z,1.7
2023-03-29T13:27:09.583Z,1.8
2023-03-29T13:32:58.038Z,1.5
2023-03-29T13:38:50.628Z,1.6
2023-03-29T13:44:39.748Z,1.5
2023-03-29T13:50:28.806Z,1.4
2023-03-29T13:56:16.562Z,1.8
2023-03-29T14:02:02.896Z,1.4
2023-03-29T14:07:49.751Z,1.6
2023-03-29T14:13:33.830Z,1.6
2023-03-29T14:19:20.373Z,1.5
2023-03-29T14:25:07.395Z,1.5
2023-03-29T14:30:51.488Z,1.4
2023-03-29T14:36:37.083Z,1.5
2023-03-29T14:42:22.458Z,1.6
2023-03-29T14:48:07.157Z,1.4
2023-03-29T14:53:51.967Z,1.4
2023-03-29T14:59:39.652Z,1.3
2023-03-29T15:05:43.774Z,1.5
2023-03-29T15:11:28.721Z,1.5
2023-03-29T15:17:18.206Z,1.4
2023-03-29T15:23:03.923Z,1.4
2023-03-29T15:28:52.563Z,1.4
2023-03-29T15:34:36.811Z,1.4
2023-03-29T15:40:23.673Z,1.6
2023-03-29T15:46:09.871Z,1.3
2023-03-29T15:51:54.161Z,1.7
2023-03-29T15:57:38.699Z,2
2023-03-29T16:03:23.378Z,1.7
2023-03-29T16:09:07.631Z,1.7
2023-03-29T16:14:51.542Z,1.8
2023-03-29T16:20:35.539Z,2.1
2023-03-29T16:26:19.734Z,1.9
2023-03-29T16:32:08.007Z,2.2
2023-03-29T16:37:52.490Z,2.4
2023-03-29T16:43:36.654Z,2.7
2023-03-29T16:49:20.702Z,3.1
2023-03-29T16:55:04.627Z,3.1
2023-03-29T17:00:50.711Z,3
2023-03-29T17:06:35.582Z,2.7
2023-03-29T17:12:20.494Z,2.7
2023-03-29T17:18:04.984Z,2.6
2023-03-29T17:23:49.062Z,2.6
2023-03-29T17:29:33.083Z,2.5
2023-03-29T17:35:17.207Z,2.4
2023-03-29T17:41:01.234Z,2.4
2023-03-29T17:46:46.504Z,2.6
2023-03-29T17:52:30.772Z,2.6
2023-03-29T17:58:14.836Z,2.5
2023-03-29T18:03:58.776Z,2.5
2023-03-29T18:09:43.988Z,2.6
2023-03-29T18:15:28.053Z,4
2023-03-29T18:21:12.251Z,6
2023-03-29T18:26:56.365Z,7
2023-03-29T18:32:40.576Z,7.8
2023-03-29T18:38:24.782Z,6.3
2023-03-29T18:44:09.038Z,5.8
2023-03-29T18:49:53.062Z,6.2
2023-03-29T18:55:37.043Z,5.4
2023-03-29T19:01:21.111Z,5.2
2023-03-29T19:07:07.227Z,5.1
2023-03-29T19:12:51.270Z,4.7
2023-03-29T19:18:35.786Z,3.9
2023-03-29T19:24:23.419Z,4.1
2023-03-29T19:30:09.325Z,4.1
2023-03-29T19:35:53.397Z,4.1
2023-03-29T19:41:37.861Z,4.1
2023-03-29T19:47:24.849Z,3.7
2023-03-29T19:53:09.945Z,3.7
2023-03-29T19:58:54.971Z,4.1
2023-03-29T20:04:39.175Z,3.3
2023-03-29T20:10:24.422Z,3.3
2023-03-29T20:16:08.833Z,3.6
2023-03-29T20:21:52.951Z,3.5
2023-03-29T20:27:37.054Z,3.4
2023-03-29T20:33:22.514Z,3.6
2023-03-29T20:39:06.715Z,3.4
2023-03-29T20:44:50.560Z,3.4
2023-03-29T20:50:34.511Z,3.3
2023-03-29T20:56:18.606Z,3.6
2023-03-29T21:02:02.939Z,3.2
2023-03-29T21:07:47.069Z,3
2023-03-29T21:13:31.177Z,3
2023-03-29T21:19:17.631Z,3.1
2023-03-29T21:25:01.694Z,2.8
2023-03-29T21:30:45.857Z,2.9
2023-03-29T21:36:30.031Z,2.8
2023-03-29T21:42:13.966Z,2.5
2023-03-29T21:47:58.101Z,2.7
2023-03-29T21:53:42.285Z,2.6
2023-03-29T21:59:26.372Z,2.9
2023-03-29T22:05:10.645Z,2.8
2023-03-29T22:10:55.185Z,2.4
2023-03-29T22:16:40.363Z,2.9
2023-03-29T22:22:24.825Z,2.8
2023-03-29T22:28:08.821Z,3
2023-03-29T22:33:55.526Z,2.7
2023-03-29T22:39:40.371Z,2.8
2023-03-29T22:45:24.539Z,3
2023-03-29T22:51:09.100Z,2.8
2023-03-29T22:56:53.151Z,2.8
2023-03-29T23:02:37.331Z,2.7
2023-03-29T23:08:21.438Z,2.4
2023-03-29T23:14:05.441Z,2.6
2023-03-29T23:19:49.745Z,2.2
2023-03-29T23:25:33.915Z,2.3
2023-03-29T23:31:18.167Z,2.3
2023-03-29T23:37:02.375Z,2.3
2023-03-29T23:42:48.131Z,2
2023-03-29T23:48:33.027Z,2
2023-03-29T23:54:17.473Z,2
